This demonstration page uses our WeatherBlox Daily Observations layout. Learn more.

Left ArrowRight Arrow

Hourly Observations for September 21, 2015

Temp ( °F °C ) Dew Point ( °F °C ) Humidity (%) Winds ( mph kmh ) Pressure ( in mb ) Visibility ( mi km ) Precip ( " mm )
12:53 am 00:53 Mostly Cloudy 54 12.2 51 10.6 90 90 Calm 30.11 1020 10 16.0934 0 0
1:53 am 01:53 Partly Cloudy 54 12.2 51 10.6 90 90 W 3 6 30.1 1019 10 16.0934 0 0
2:53 am 02:53 Clear 51 10.6 49 9.4 92 92 WSW 3 6 30.1 1019 10 16.0934 0 0
3:53 am 03:53 Mostly Clear 50 10 48 8.9 93 93 Calm 30.09 1019 10 16.0934 0 0
4:53 am 04:53 Clear with Mist and Fog 48 8.9 47 8.3 96 96 Calm 30.09 1019 6 9.65604 0 0
5:53 am 05:53 Clear 47 8.3 46 7.8 97 97 Calm 30.1 1019 8 12.87472 0 0
6:53 am 06:53 Clear 46 7.8 44 6.7 93 93 Calm 30.11 1020 8 12.87472 0 0
7:53 am 07:53 Sunny 47 8.3 46 7.8 97 97 Calm 30.13 1020 10 16.0934 0 0
8:53 am 08:53 Sunny 56 13.3 51 10.6 84 84 Calm 30.14 1021 10 16.0934 0 0
9:53 am 09:53 Sunny 62 16.7 52 11.1 70 70 Calm 30.14 1021 10 16.0934 0 0
10:53 am 10:53 Sunny 66 18.9 51 10.6 59 59 VRB 3 6 30.14 1021 10 16.0934 0 0
11:53 am 11:53 Sunny 72 22.2 49 9.4 44 44 NE 10 17 30.14 1021 10 16.0934 0 0
12:53 pm 12:53 Sunny 73 22.8 48 8.9 41 41 NW 6 9 30.12 1020 10 16.0934 0 0
1:53 pm 13:53 Sunny 74 23.3 47 8.3 38 38 Calm 30.1 1019 10 16.0934 0 0
2:53 pm 14:53 Sunny 77 25 47 8.3 35 35 NNW 6 9 30.08 1019 10 16.0934 0 0
3:53 pm 15:53 Sunny 77 25 48 8.9 36 36 Calm 30.07 1018 10 16.0934 0 0
4:53 pm 16:53 Sunny 77 25 47 8.3 35 35 N 3 6 30.07 1018 10 16.0934 0 0
5:53 pm 17:53 Sunny 77 25 48 8.9 36 36 NNE 8 13 30.07 1018 10 16.0934 0 0
6:53 pm 18:53 Sunny 75 23.9 49 9.4 40 40 NNE 5 7 30.08 1019 10 16.0934 0 0
7:53 pm 19:53 Clear 61 16.1 53 11.7 75 75 Calm 30.09 1019 10 16.0934 0 0
8:53 pm 20:53 Clear 57 13.9 53 11.7 87 87 Calm 30.1 1019 10 16.0934 0 0
9:53 pm 21:53 Clear 55 12.8 52 11.1 90 90 Calm 30.12 1020 10 16.0934 0 0
10:53 pm 22:53 Clear 52 11.1 51 10.6 97 97 Calm 30.12 1020 10 16.0934 0 0
11:53 pm 23:53 Clear 51 10.6 50 10 96 96 Calm 30.12 1020 10 16.0934 0 0

Powered by AerisWeather